sensor_id;sensor_type;location;lat;lon;timestamp;P1;durP1;ratioP1;P2;durP2;ratioP2
23163;SDS011;31429;42.674;23.350;2023-08-06T00:00:10;11.53;;;6.67;;
23163;SDS011;31429;42.674;23.350;2023-08-06T00:01:11;7.73;;;5.43;;
23163;SDS011;31429;42.674;23.350;2023-08-06T00:02:13;6.97;;;5.27;;
23163;SDS011;31429;42.674;23.350;2023-08-06T00:03:14;8.47;;;6.40;;
23163;SDS011;31429;42.674;23.350;2023-08-06T00:04:15;8.60;;;6.10;;
23163;SDS011;31429;42.674;23.350;2023-08-06T00:05:15;11.37;;;6.23;;
23163;SDS011;31429;42.674;23.350;2023-08-06T00:06:21;8.87;;;5.87;;
23163;SDS011;31429;42.674;23.350;2023-08-06T00:07:21;7.43;;;5.57;;
23163;SDS011;31429;42.674;23.350;2023-08-06T00:08:22;9.77;;;6.33;;
23163;SDS011;31429;42.674;23.350;2023-08-06T00:09:23;9.70;;;6.03;;
23163;SDS011;31429;42.674;23.350;2023-08-06T00:10:23;9.00;;;6.23;;
23163;SDS011;31429;42.674;23.350;2023-08-06T00:11:24;12.93;;;7.23;;
23163;SDS011;31429;42.674;23.350;2023-08-06T00:12:25;8.23;;;6.30;;
23163;SDS011;31429;42.674;23.350;2023-08-06T00:13:25;10.13;;;6.70;;
23163;SDS011;31429;42.674;23.350;2023-08-06T00:14:26;9.37;;;5.73;;
23163;SDS011;31429;42.674;23.350;2023-08-06T00:15:27;8.43;;;5.87;;
23163;SDS011;31429;42.674;23.350;2023-08-06T00:16:28;10.23;;;6.07;;
23163;SDS011;31429;42.674;23.350;2023-08-06T00:17:30;9.87;;;6.20;;
23163;SDS011;31429;42.674;23.350;2023-08-06T00:18:30;7.73;;;6.33;;
23163;SDS011;31429;42.674;23.350;2023-08-06T00:19:31;9.03;;;6.60;;
23163;SDS011;31429;42.674;23.350;2023-08-06T00:20:32;10.73;;;6.17;;
23163;SDS011;31429;42.674;23.350;2023-08-06T00:21:32;8.60;;;6.43;;
23163;SDS011;31429;42.674;23.350;2023-08-06T00:22:33;8.10;;;7.30;;
23163;SDS011;31429;42.674;23.350;2023-08-06T00:23:34;10.23;;;6.70;;
23163;SDS011;31429;42.674;23.350;2023-08-06T00:24:35;11.30;;;6.33;;
23163;SDS011;31429;42.674;23.350;2023-08-06T00:25:36;8.43;;;6.27;;
23163;SDS011;31429;42.674;23.350;2023-08-06T00:26:37;9.17;;;6.60;;
23163;SDS011;31429;42.674;23.350;2023-08-06T00:27:37;8.50;;;6.10;;
23163;SDS011;31429;42.674;23.350;2023-08-06T00:28:38;9.60;;;6.60;;
23163;SDS011;31429;42.674;23.350;2023-08-06T00:29:39;10.57;;;6.17;;
23163;SDS011;31429;42.674;23.350;2023-08-06T00:30:40;12.13;;;7.03;;
23163;SDS011;31429;42.674;23.350;2023-08-06T00:31:40;12.43;;;6.50;;
23163;SDS011;31429;42.674;23.350;2023-08-06T00:32:42;10.67;;;6.97;;
23163;SDS011;31429;42.674;23.350;2023-08-06T00:33:43;14.20;;;6.87;;
23163;SDS011;31429;42.674;23.350;2023-08-06T00:34:44;11.63;;;7.10;;
23163;SDS011;31429;42.674;23.350;2023-08-06T00:35:44;9.20;;;6.50;;
23163;SDS011;31429;42.674;23.350;2023-08-06T00:36:45;7.57;;;6.77;;
23163;SDS011;31429;42.674;23.350;2023-08-06T00:37:46;10.27;;;7.07;;
23163;SDS011;31429;42.674;23.350;2023-08-06T00:38:47;8.93;;;6.57;;
23163;SDS011;31429;42.674;23.350;2023-08-06T00:39:48;9.17;;;6.47;;
23163;SDS011;31429;42.674;23.350;2023-08-06T00:40:48;9.40;;;6.13;;
23163;SDS011;31429;42.674;23.350;2023-08-06T00:41:49;9.13;;;6.17;;
23163;SDS011;31429;42.674;23.350;2023-08-06T00:42:50;8.70;;;6.70;;
23163;SDS011;31429;42.674;23.350;2023-08-06T00:43:50;13.60;;;7.10;;
23163;SDS011;31429;42.674;23.350;2023-08-06T00:44:51;7.07;;;6.37;;
23163;SDS011;31429;42.674;23.350;2023-08-06T00:45:52;7.33;;;6.50;;
23163;SDS011;31429;42.674;23.350;2023-08-06T00:46:52;10.40;;;7.07;;
23163;SDS011;31429;42.674;23.350;2023-08-06T00:47:55;7.63;;;6.30;;
23163;SDS011;31429;42.674;23.350;2023-08-06T00:48:55;9.07;;;6.27;;
23163;SDS011;31429;42.674;23.350;2023-08-06T00:49:56;8.17;;;5.60;;
23163;SDS011;31429;42.674;23.350;2023-08-06T00:50:57;8.53;;;6.27;;
23163;SDS011;31429;42.674;23.350;2023-08-06T00:51:58;6.47;;;5.83;;
23163;SDS011;31429;42.674;23.350;2023-08-06T00:52:59;6.67;;;5.80;;
23163;SDS011;31429;42.674;23.350;2023-08-06T00:54:01;8.20;;;6.60;;
23163;SDS011;31429;42.674;23.350;2023-08-06T00:55:02;6.83;;;6.10;;
23163;SDS011;31429;42.674;23.350;2023-08-06T00:56:04;6.90;;;6.20;;
23163;SDS011;31429;42.674;23.350;2023-08-06T00:57:04;7.33;;;6.60;;
23163;SDS011;31429;42.674;23.350;2023-08-06T00:58:07;7.80;;;6.80;;
23163;SDS011;31429;42.674;23.350;2023-08-06T00:59:07;7.33;;;6.33;;
23163;SDS011;31429;42.674;23.350;2023-08-06T01:00:10;8.13;;;7.33;;
23163;SDS011;31429;42.674;23.350;2023-08-06T01:01:11;8.63;;;6.70;;
23163;SDS011;31429;42.674;23.350;2023-08-06T01:02:12;9.40;;;6.47;;
23163;SDS011;31429;42.674;23.350;2023-08-06T01:03:14;8.87;;;6.80;;
23163;SDS011;31429;42.674;23.350;2023-08-06T01:04:15;8.47;;;7.10;;
23163;SDS011;31429;42.674;23.350;2023-08-06T01:05:16;8.30;;;7.23;;
23163;SDS011;31429;42.674;23.350;2023-08-06T01:06:17;9.60;;;7.63;;
23163;SDS011;31429;42.674;23.350;2023-08-06T01:07:26;14.07;;;8.43;;
23163;SDS011;31429;42.674;23.350;2023-08-06T01:08:37;9.57;;;8.63;;
23163;SDS011;31429;42.674;23.350;2023-08-06T01:09:50;10.13;;;9.03;;
23163;SDS011;31429;42.674;23.350;2023-08-06T01:11:01;12.10;;;9.90;;
23163;SDS011;31429;42.674;23.350;2023-08-06T01:12:09;10.47;;;9.33;;
23163;SDS011;31429;42.674;23.350;2023-08-06T01:13:27;9.47;;;8.53;;
23163;SDS011;31429;42.674;23.350;2023-08-06T01:14:34;10.10;;;9.10;;
23163;SDS011;31429;42.674;23.350;2023-08-06T01:15:46;10.23;;;9.30;;
23163;SDS011;31429;42.674;23.350;2023-08-06T01:16:49;10.00;;;8.97;;
23163;SDS011;31429;42.674;23.350;2023-08-06T01:17:51;12.13;;;8.70;;
23163;SDS011;31429;42.674;23.350;2023-08-06T01:18:54;9.20;;;8.30;;
23163;SDS011;31429;42.674;23.350;2023-08-06T01:19:54;10.23;;;8.57;;
23163;SDS011;31429;42.674;23.350;2023-08-06T01:20:56;9.77;;;8.57;;
23163;SDS011;31429;42.674;23.350;2023-08-06T01:21:57;13.17;;;8.90;;
23163;SDS011;31429;42.674;23.350;2023-08-06T01:22:58;10.97;;;9.83;;
23163;SDS011;31429;42.674;23.350;2023-08-06T01:23:59;11.37;;;9.37;;
23163;SDS011;31429;42.674;23.350;2023-08-06T01:24:59;10.80;;;9.70;;
23163;SDS011;31429;42.674;23.350;2023-08-06T01:26:02;11.40;;;8.27;;
23163;SDS011;31429;42.674;23.350;2023-08-06T01:27:14;10.83;;;8.80;;
23163;SDS011;31429;42.674;23.350;2023-08-06T01:28:22;11.67;;;8.93;;
23163;SDS011;31429;42.674;23.350;2023-08-06T01:29:28;11.60;;;8.37;;
23163;SDS011;31429;42.674;23.350;2023-08-06T01:30:34;12.40;;;8.97;;
23163;SDS011;31429;42.674;23.350;2023-08-06T01:31:41;10.57;;;9.40;;
23163;SDS011;31429;42.674;23.350;2023-08-06T01:32:45;10.90;;;8.57;;
23163;SDS011;31429;42.674;23.350;2023-08-06T01:33:49;9.63;;;8.47;;
23163;SDS011;31429;42.674;23.350;2023-08-06T01:34:53;12.77;;;8.57;;
23163;SDS011;31429;42.674;23.350;2023-08-06T01:35:57;10.13;;;9.03;;
23163;SDS011;31429;42.674;23.350;2023-08-06T01:36:59;9.53;;;8.63;;
23163;SDS011;31429;42.674;23.350;2023-08-06T01:38:01;10.10;;;9.03;;
23163;SDS011;31429;42.674;23.350;2023-08-06T01:39:02;12.10;;;9.30;;
23163;SDS011;31429;42.674;23.350;2023-08-06T01:40:05;11.60;;;9.03;;
23163;SDS011;31429;42.674;23.350;2023-08-06T01:41:07;9.67;;;8.67;;
23163;SDS011;31429;42.674;23.350;2023-08-06T01:42:08;9.50;;;8.13;;
23163;SDS011;31429;42.674;23.350;2023-08-06T01:43:08;11.33;;;8.73;;
23163;SDS011;31429;42.674;23.350;2023-08-06T01:44:09;9.37;;;8.20;;
23163;SDS011;31429;42.674;23.350;2023-08-06T01:45:10;10.53;;;9.10;;
23163;SDS011;31429;42.674;23.350;2023-08-06T01:46:10;11.50;;;9.10;;
23163;SDS011;31429;42.674;23.350;2023-08-06T01:47:11;10.20;;;8.70;;
23163;SDS011;31429;42.674;23.350;2023-08-06T01:48:12;11.80;;;8.87;;
23163;SDS011;31429;42.674;23.350;2023-08-06T01:49:13;12.20;;;8.80;;
23163;SDS011;31429;42.674;23.350;2023-08-06T01:50:13;10.10;;;8.93;;
23163;SDS011;31429;42.674;23.350;2023-08-06T01:51:15;10.30;;;8.70;;
23163;SDS011;31429;42.674;23.350;2023-08-06T01:52:16;9.87;;;8.37;;
23163;SDS011;31429;42.674;23.350;2023-08-06T01:53:17;10.73;;;8.90;;
23163;SDS011;31429;42.674;23.350;2023-08-06T01:54:17;12.07;;;8.50;;
23163;SDS011;31429;42.674;23.350;2023-08-06T01:55:18;14.87;;;8.17;;
23163;SDS011;31429;42.674;23.350;2023-08-06T01:56:18;9.37;;;8.43;;
23163;SDS011;31429;42.674;23.350;2023-08-06T01:57:19;9.53;;;8.63;;
23163;SDS011;31429;42.674;23.350;2023-08-06T01:58:20;11.03;;;8.07;;
23163;SDS011;31429;42.674;23.350;2023-08-06T01:59:20;8.90;;;8.00;;
23163;SDS011;31429;42.674;23.350;2023-08-06T02:00:21;11.20;;;8.83;;
23163;SDS011;31429;42.674;23.350;2023-08-06T02:01:22;9.50;;;8.50;;
23163;SDS011;31429;42.674;23.350;2023-08-06T02:02:22;9.23;;;8.27;;
23163;SDS011;31429;42.674;23.350;2023-08-06T02:03:23;12.40;;;9.10;;
23163;SDS011;31429;42.674;23.350;2023-08-06T02:04:23;13.07;;;9.60;;
23163;SDS011;31429;42.674;23.350;2023-08-06T02:05:24;9.83;;;8.83;;
23163;SDS011;31429;42.674;23.350;2023-08-06T02:06:26;15.50;;;12.20;;
23163;SDS011;31429;42.674;23.350;2023-08-06T02:07:27;11.97;;;10.77;;
23163;SDS011;31429;42.674;23.350;2023-08-06T02:08:27;20.40;;;18.30;;
23163;SDS011;31429;42.674;23.350;2023-08-06T02:09:28;31.33;;;24.43;;
23163;SDS011;31429;42.674;23.350;2023-08-06T02:10:28;23.37;;;20.83;;
23163;SDS011;31429;42.674;23.350;2023-08-06T02:11:29;21.73;;;18.27;;
23163;SDS011;31429;42.674;23.350;2023-08-06T02:12:30;21.97;;;18.10;;
23163;SDS011;31429;42.674;23.350;2023-08-06T02:13:30;21.67;;;16.97;;
23163;SDS011;31429;42.674;23.350;2023-08-06T02:14:31;20.30;;;17.33;;
23163;SDS011;31429;42.674;23.350;2023-08-06T02:15:32;20.80;;;18.70;;
23163;SDS011;31429;42.674;23.350;2023-08-06T02:16:33;23.73;;;18.93;;
23163;SDS011;31429;42.674;23.350;2023-08-06T02:17:33;21.50;;;18.40;;
23163;SDS011;31429;42.674;23.350;2023-08-06T02:18:34;23.37;;;16.80;;
23163;SDS011;31429;42.674;23.350;2023-08-06T02:19:35;19.00;;;17.00;;
23163;SDS011;31429;42.674;23.350;2023-08-06T02:20:35;16.63;;;14.93;;
23163;SDS011;31429;42.674;23.350;2023-08-06T02:21:37;16.33;;;14.23;;
23163;SDS011;31429;42.674;23.350;2023-08-06T02:22:38;17.73;;;15.83;;
23163;SDS011;31429;42.674;23.350;2023-08-06T02:23:38;20.87;;;16.47;;
23163;SDS011;31429;42.674;23.350;2023-08-06T02:24:39;16.77;;;14.10;;
23163;SDS011;31429;42.674;23.350;2023-08-06T02:25:40;19.90;;;15.83;;
23163;SDS011;31429;42.674;23.350;2023-08-06T02:26:40;18.33;;;14.20;;
23163;SDS011;31429;42.674;23.350;2023-08-06T02:27:41;15.40;;;12.43;;
23163;SDS011;31429;42.674;23.350;2023-08-06T02:28:41;11.87;;;10.23;;
23163;SDS011;31429;42.674;23.350;2023-08-06T02:29:42;12.73;;;10.17;;
23163;SDS011;31429;42.674;23.350;2023-08-06T02:30:49;12.03;;;10.23;;
23163;SDS011;31429;42.674;23.350;2023-08-06T02:31:50;12.00;;;10.80;;
23163;SDS011;31429;42.674;23.350;2023-08-06T02:32:50;11.70;;;9.67;;
23163;SDS011;31429;42.674;23.350;2023-08-06T02:33:51;11.80;;;9.13;;
23163;SDS011;31429;42.674;23.350;2023-08-06T02:34:53;9.00;;;8.03;;
23163;SDS011;31429;42.674;23.350;2023-08-06T02:35:58;13.43;;;10.30;;
23163;SDS011;31429;42.674;23.350;2023-08-06T02:37:01;10.17;;;8.73;;
23163;SDS011;31429;42.674;23.350;2023-08-06T02:38:02;16.37;;;11.23;;
23163;SDS011;31429;42.674;23.350;2023-08-06T02:39:02;19.93;;;10.70;;
23163;SDS011;31429;42.674;23.350;2023-08-06T02:40:03;18.00;;;10.10;;
23163;SDS011;31429;42.674;23.350;2023-08-06T02:41:05;19.27;;;10.87;;
23163;SDS011;31429;42.674;23.350;2023-08-06T02:42:06;17.80;;;9.77;;
23163;SDS011;31429;42.674;23.350;2023-08-06T02:43:06;20.93;;;10.07;;
23163;SDS011;31429;42.674;23.350;2023-08-06T02:44:07;17.70;;;9.53;;
23163;SDS011;31429;42.674;23.350;2023-08-06T02:45:08;15.30;;;8.50;;
23163;SDS011;31429;42.674;23.350;2023-08-06T02:46:09;19.43;;;9.07;;
23163;SDS011;31429;42.674;23.350;2023-08-06T02:47:10;19.17;;;8.93;;
23163;SDS011;31429;42.674;23.350;2023-08-06T02:48:10;13.13;;;8.03;;
23163;SDS011;31429;42.674;23.350;2023-08-06T02:49:11;11.70;;;7.10;;
23163;SDS011;31429;42.674;23.350;2023-08-06T02:50:11;11.97;;;8.47;;
23163;SDS011;31429;42.674;23.350;2023-08-06T02:51:12;15.10;;;8.77;;
23163;SDS011;31429;42.674;23.350;2023-08-06T02:52:14;10.10;;;7.53;;
23163;SDS011;31429;42.674;23.350;2023-08-06T02:53:15;8.07;;;6.53;;
23163;SDS011;31429;42.674;23.350;2023-08-06T02:54:16;22.67;;;7.17;;
23163;SDS011;31429;42.674;23.350;2023-08-06T02:55:17;9.97;;;7.00;;
23163;SDS011;31429;42.674;23.350;2023-08-06T02:56:17;9.60;;;6.67;;
23163;SDS011;31429;42.674;23.350;2023-08-06T02:57:18;7.60;;;6.27;;
23163;SDS011;31429;42.674;23.350;2023-08-06T02:58:19;7.97;;;6.73;;
23163;SDS011;31429;42.674;23.350;2023-08-06T02:59:22;7.67;;;6.67;;
23163;SDS011;31429;42.674;23.350;2023-08-06T03:00:23;10.50;;;6.93;;
23163;SDS011;31429;42.674;23.350;2023-08-06T03:01:23;7.63;;;6.83;;
23163;SDS011;31429;42.674;23.350;2023-08-06T03:02:26;12.13;;;7.00;;
23163;SDS011;31429;42.674;23.350;2023-08-06T03:03:27;10.87;;;7.50;;
23163;SDS011;31429;42.674;23.350;2023-08-06T03:04:27;9.93;;;7.77;;
23163;SDS011;31429;42.674;23.350;2023-08-06T03:05:28;10.47;;;8.23;;
23163;SDS011;31429;42.674;23.350;2023-08-06T03:06:28;10.33;;;7.33;;
23163;SDS011;31429;42.674;23.350;2023-08-06T03:07:30;9.63;;;7.40;;
23163;SDS011;31429;42.674;23.350;2023-08-06T03:08:31;15.27;;;7.63;;
23163;SDS011;31429;42.674;23.350;2023-08-06T03:09:32;14.03;;;8.10;;
23163;SDS011;31429;42.674;23.350;2023-08-06T03:10:32;13.47;;;7.87;;
23163;SDS011;31429;42.674;23.350;2023-08-06T03:11:33;11.73;;;7.37;;
23163;SDS011;31429;42.674;23.350;2023-08-06T03:12:34;11.77;;;7.57;;
23163;SDS011;31429;42.674;23.350;2023-08-06T03:13:34;17.50;;;11.83;;
23163;SDS011;31429;42.674;23.350;2023-08-06T03:14:35;12.40;;;10.80;;
23163;SDS011;31429;42.674;23.350;2023-08-06T03:15:36;10.60;;;8.60;;
23163;SDS011;31429;42.674;23.350;2023-08-06T03:16:36;10.73;;;7.73;;
23163;SDS011;31429;42.674;23.350;2023-08-06T03:17:37;14.60;;;7.70;;
23163;SDS011;31429;42.674;23.350;2023-08-06T03:18:38;18.87;;;11.77;;
23163;SDS011;31429;42.674;23.350;2023-08-06T03:19:39;15.23;;;12.90;;
23163;SDS011;31429;42.674;23.350;2023-08-06T03:20:40;149.17;;;128.77;;
23163;SDS011;31429;42.674;23.350;2023-08-06T03:21:40;85.30;;;69.83;;
23163;SDS011;31429;42.674;23.350;2023-08-06T03:22:42;172.47;;;145.43;;
23163;SDS011;31429;42.674;23.350;2023-08-06T03:23:43;62.30;;;50.57;;
23163;SDS011;31429;42.674;23.350;2023-08-06T03:24:49;18.67;;;11.57;;
23163;SDS011;31429;42.674;23.350;2023-08-06T03:25:50;19.43;;;15.37;;
23163;SDS011;31429;42.674;23.350;2023-08-06T03:26:51;69.87;;;56.00;;
23163;SDS011;31429;42.674;23.350;2023-08-06T03:27:52;68.40;;;56.30;;
23163;SDS011;31429;42.674;23.350;2023-08-06T03:28:52;107.13;;;90.33;;
23163;SDS011;31429;42.674;23.350;2023-08-06T03:29:53;21.03;;;17.63;;
23163;SDS011;31429;42.674;23.350;2023-08-06T03:30:58;13.47;;;11.37;;
23163;SDS011;31429;42.674;23.350;2023-08-06T03:32:00;17.60;;;14.33;;
23163;SDS011;31429;42.674;23.350;2023-08-06T03:33:01;13.40;;;11.23;;
23163;SDS011;31429;42.674;23.350;2023-08-06T03:34:01;18.63;;;10.10;;
23163;SDS011;31429;42.674;23.350;2023-08-06T03:35:02;12.43;;;8.73;;
23163;SDS011;31429;42.674;23.350;2023-08-06T03:36:03;14.27;;;8.20;;
23163;SDS011;31429;42.674;23.350;2023-08-06T03:37:04;11.07;;;9.13;;
23163;SDS011;31429;42.674;23.350;2023-08-06T03:38:07;12.13;;;9.33;;
23163;SDS011;31429;42.674;23.350;2023-08-06T03:39:07;11.77;;;9.90;;
23163;SDS011;31429;42.674;23.350;2023-08-06T03:40:08;14.10;;;9.77;;
23163;SDS011;31429;42.674;23.350;2023-08-06T03:41:10;13.63;;;9.60;;
23163;SDS011;31429;42.674;23.350;2023-08-06T03:42:10;12.93;;;9.43;;
23163;SDS011;31429;42.674;23.350;2023-08-06T03:43:11;16.50;;;9.97;;
23163;SDS011;31429;42.674;23.350;2023-08-06T03:44:12;12.83;;;9.50;;
23163;SDS011;31429;42.674;23.350;2023-08-06T03:45:12;12.50;;;9.67;;
23163;SDS011;31429;42.674;23.350;2023-08-06T03:46:13;12.77;;;9.37;;
23163;SDS011;31429;42.674;23.350;2023-08-06T03:47:14;19.23;;;10.27;;
23163;SDS011;31429;42.674;23.350;2023-08-06T03:48:14;15.00;;;10.30;;
23163;SDS011;31429;42.674;23.350;2023-08-06T03:49:15;14.03;;;9.83;;
23163;SDS011;31429;42.674;23.350;2023-08-06T03:50:16;13.70;;;9.87;;
23163;SDS011;31429;42.674;23.350;2023-08-06T03:51:16;12.17;;;10.73;;
23163;SDS011;31429;42.674;23.350;2023-08-06T03:52:17;12.03;;;10.73;;
23163;SDS011;31429;42.674;23.350;2023-08-06T03:53:19;14.40;;;12.17;;
23163;SDS011;31429;42.674;23.350;2023-08-06T03:54:20;16.43;;;12.60;;
23163;SDS011;31429;42.674;23.350;2023-08-06T03:55:20;15.10;;;11.23;;
23163;SDS011;31429;42.674;23.350;2023-08-06T03:56:21;13.90;;;10.70;;
23163;SDS011;31429;42.674;23.350;2023-08-06T03:57:22;12.13;;;10.80;;
23163;SDS011;31429;42.674;23.350;2023-08-06T03:58:22;11.47;;;9.53;;
23163;SDS011;31429;42.674;23.350;2023-08-06T03:59:23;12.20;;;9.07;;
23163;SDS011;31429;42.674;23.350;2023-08-06T04:00:24;13.07;;;9.50;;
23163;SDS011;31429;42.674;23.350;2023-08-06T04:01:24;11.43;;;8.97;;
23163;SDS011;31429;42.674;23.350;2023-08-06T04:02:25;11.40;;;10.13;;
23163;SDS011;31429;42.674;23.350;2023-08-06T04:04:13;12.40;;;8.80;;
23163;SDS011;31429;42.674;23.350;2023-08-06T04:05:52;13.50;;;8.67;;
23163;SDS011;31429;42.674;23.350;2023-08-06T04:07:26;13.27;;;11.53;;
23163;SDS011;31429;42.674;23.350;2023-08-06T04:15:07;11.57;;;9.63;;
23163;SDS011;31429;42.674;23.350;2023-08-06T04:16:34;13.10;;;8.33;;
23163;SDS011;31429;42.674;23.350;2023-08-06T04:17:56;10.07;;;8.30;;
23163;SDS011;31429;42.674;23.350;2023-08-06T04:19:17;9.70;;;8.23;;
23163;SDS011;31429;42.674;23.350;2023-08-06T04:20:21;9.80;;;8.80;;
23163;SDS011;31429;42.674;23.350;2023-08-06T04:22:06;10.70;;;9.13;;
23163;SDS011;31429;42.674;23.350;2023-08-06T04:23:08;12.67;;;9.70;;
23163;SDS011;31429;42.674;23.350;2023-08-06T04:24:17;11.97;;;9.63;;
23163;SDS011;31429;42.674;23.350;2023-08-06T04:27:19;11.67;;;8.03;;
23163;SDS011;31429;42.674;23.350;2023-08-06T04:28:30;13.20;;;9.60;;
23163;SDS011;31429;42.674;23.350;2023-08-06T04:29:55;9.40;;;8.43;;
23163;SDS011;31429;42.674;23.350;2023-08-06T04:30:59;10.03;;;8.47;;
23163;SDS011;31429;42.674;23.350;2023-08-06T04:35:43;10.10;;;8.87;;
23163;SDS011;31429;42.674;23.350;2023-08-06T04:37:27;9.73;;;8.80;;
23163;SDS011;31429;42.674;23.350;2023-08-06T04:38:49;10.63;;;9.67;;
23163;SDS011;31429;42.674;23.350;2023-08-06T04:40:13;11.47;;;9.70;;
23163;SDS011;31429;42.674;23.350;2023-08-06T04:41:19;10.23;;;9.23;;
23163;SDS011;31429;42.674;23.350;2023-08-06T04:42:26;10.67;;;9.57;;
23163;SDS011;31429;42.674;23.350;2023-08-06T04:43:30;11.00;;;9.27;;
23163;SDS011;31429;42.674;23.350;2023-08-06T04:44:31;14.77;;;8.50;;
23163;SDS011;31429;42.674;23.350;2023-08-06T04:45:34;14.07;;;9.17;;
23163;SDS011;31429;42.674;23.350;2023-08-06T04:52:34;12.07;;;9.60;;
23163;SDS011;31429;42.674;23.350;2023-08-06T04:53:39;12.83;;;11.13;;
23163;SDS011;31429;42.674;23.350;2023-08-06T04:54:44;14.40;;;11.10;;
23163;SDS011;31429;42.674;23.350;2023-08-06T04:56:09;12.53;;;9.73;;
23163;SDS011;31429;42.674;23.350;2023-08-06T05:38:40;10.63;;;9.60;;
23163;SDS011;31429;42.674;23.350;2023-08-06T05:40:10;11.63;;;9.43;;
23163;SDS011;31429;42.674;23.350;2023-08-06T05:41:22;10.90;;;9.63;;
23163;SDS011;31429;42.674;23.350;2023-08-06T05:42:51;13.40;;;11.30;;
23163;SDS011;31429;42.674;23.350;2023-08-06T05:44:04;17.30;;;15.43;;
23163;SDS011;31429;42.674;23.350;2023-08-06T05:45:16;10.63;;;9.60;;
23163;SDS011;31429;42.674;23.350;2023-08-06T05:46:23;16.67;;;14.93;;
23163;SDS011;31429;42.674;23.350;2023-08-06T05:47:49;14.37;;;10.77;;
23163;SDS011;31429;42.674;23.350;2023-08-06T05:49:13;17.43;;;14.93;;
23163;SDS011;31429;42.674;23.350;2023-08-06T05:50:24;15.40;;;13.80;;
23163;SDS011;31429;42.674;23.350;2023-08-06T05:51:28;20.80;;;16.30;;
23163;SDS011;31429;42.674;23.350;2023-08-06T05:53:12;18.57;;;16.23;;
23163;SDS011;31429;42.674;23.350;2023-08-06T05:55:02;20.47;;;14.33;;
23163;SDS011;31429;42.674;23.350;2023-08-06T05:56:35;13.87;;;12.47;;
23163;SDS011;31429;42.674;23.350;2023-08-06T05:57:38;10.03;;;9.10;;
23163;SDS011;31429;42.674;23.350;2023-08-06T05:58:43;12.17;;;10.83;;
23163;SDS011;31429;42.674;23.350;2023-08-06T05:59:47;10.40;;;9.30;;
23163;SDS011;31429;42.674;23.350;2023-08-06T06:01:12;8.43;;;6.60;;
23163;SDS011;31429;42.674;23.350;2023-08-06T06:03:13;5.73;;;5.33;;
23163;SDS011;31429;42.674;23.350;2023-08-06T06:04:57;6.87;;;6.17;;
23163;SDS011;31429;42.674;23.350;2023-08-06T06:05:59;10.77;;;8.53;;
23163;SDS011;31429;42.674;23.350;2023-08-06T06:07:04;6.97;;;6.40;;
23163;SDS011;31429;42.674;23.350;2023-08-06T06:18:27;6.27;;;4.80;;
23163;SDS011;31429;42.674;23.350;2023-08-06T06:20:13;6.20;;;5.23;;
23163;SDS011;31429;42.674;23.350;2023-08-06T06:21:37;6.07;;;5.57;;
23163;SDS011;31429;42.674;23.350;2023-08-06T06:22:43;6.77;;;4.33;;
23163;SDS011;31429;42.674;23.350;2023-08-06T06:24:10;5.53;;;4.73;;
23163;SDS011;31429;42.674;23.350;2023-08-06T06:34:07;4.57;;;3.50;;
23163;SDS011;31429;42.674;23.350;2023-08-06T06:35:10;3.10;;;2.90;;
23163;SDS011;31429;42.674;23.350;2023-08-06T06:36:33;4.37;;;3.20;;
23163;SDS011;31429;42.674;23.350;2023-08-06T06:37:55;5.07;;;4.50;;
23163;SDS011;31429;42.674;23.350;2023-08-06T07:23:00;6.10;;;4.53;;
23163;SDS011;31429;42.674;23.350;2023-08-06T07:24:25;4.73;;;4.00;;
23163;SDS011;31429;42.674;23.350;2023-08-06T07:25:30;5.10;;;4.70;;
23163;SDS011;31429;42.674;23.350;2023-08-06T07:26:52;4.73;;;4.40;;
23163;SDS011;31429;42.674;23.350;2023-08-06T07:28:15;4.20;;;3.90;;
23163;SDS011;31429;42.674;23.350;2023-08-06T07:29:20;6.20;;;4.20;;
23163;SDS011;31429;42.674;23.350;2023-08-06T07:30:23;5.13;;;4.60;;
23163;SDS011;31429;42.674;23.350;2023-08-06T07:31:48;4.73;;;4.33;;
23163;SDS011;31429;42.674;23.350;2023-08-06T07:33:12;4.77;;;4.33;;
23163;SDS011;31429;42.674;23.350;2023-08-06T07:55:07;6.77;;;4.60;;
23163;SDS011;31429;42.674;23.350;2023-08-06T07:56:15;7.07;;;4.43;;
23163;SDS011;31429;42.674;23.350;2023-08-06T07:57:36;4.60;;;4.20;;
23163;SDS011;31429;42.674;23.350;2023-08-06T07:59:10;10.40;;;4.90;;
23163;SDS011;31429;42.674;23.350;2023-08-06T08:00:33;8.40;;;4.40;;
23163;SDS011;31429;42.674;23.350;2023-08-06T08:02:38;4.20;;;3.80;;
23163;SDS011;31429;42.674;23.350;2023-08-06T08:04:54;4.67;;;4.27;;
23163;SDS011;31429;42.674;23.350;2023-08-06T12:11:52;5.68;;;5.25;;
23163;SDS011;31429;42.674;23.350;2023-08-06T12:21:08;6.20;;;5.57;;
23163;SDS011;31429;42.674;23.350;2023-08-06T12:22:57;6.72;;;6.22;;
23163;SDS011;31429;42.674;23.350;2023-08-06T12:26:08;7.15;;;5.95;;
23163;SDS011;31429;42.674;23.350;2023-08-06T14:48:26;6.82;;;5.65;;
23163;SDS011;31429;42.674;23.350;2023-08-06T15:13:51;7.43;;;5.15;;
23163;SDS011;31429;42.674;23.350;2023-08-06T15:18:28;7.07;;;5.88;;
23163;SDS011;31429;42.674;23.350;2023-08-06T15:19:29;9.00;;;5.53;;
23163;SDS011;31429;42.674;23.350;2023-08-06T15:20:30;6.03;;;5.18;;
23163;SDS011;31429;42.674;23.350;2023-08-06T15:21:31;18.95;;;15.30;;
23163;SDS011;31429;42.674;23.350;2023-08-06T15:22:31;6.43;;;5.20;;
23163;SDS011;31429;42.674;23.350;2023-08-06T15:32:54;21.42;;;15.32;;
23163;SDS011;31429;42.674;23.350;2023-08-06T15:33:54;13.35;;;9.98;;
23163;SDS011;31429;42.674;23.350;2023-08-06T15:34:55;7.65;;;5.05;;
23163;SDS011;31429;42.674;23.350;2023-08-06T15:35:56;7.60;;;4.20;;
23163;SDS011;31429;42.674;23.350;2023-08-06T15:36:57;5.32;;;4.38;;
23163;SDS011;31429;42.674;23.350;2023-08-06T15:37:58;10.30;;;7.75;;
23163;SDS011;31429;42.674;23.350;2023-08-06T15:38:59;11.65;;;8.70;;
23163;SDS011;31429;42.674;23.350;2023-08-06T15:42:36;9.75;;;7.15;;
23163;SDS011;31429;42.674;23.350;2023-08-06T15:43:56;7.40;;;5.70;;
23163;SDS011;31429;42.674;23.350;2023-08-06T15:44:57;8.70;;;4.90;;
23163;SDS011;31429;42.674;23.350;2023-08-06T15:45:58;10.70;;;6.88;;
23163;SDS011;31429;42.674;23.350;2023-08-06T15:46:59;15.30;;;6.53;;
23163;SDS011;31429;42.674;23.350;2023-08-06T15:48:01;6.22;;;4.97;;
23163;SDS011;31429;42.674;23.350;2023-08-06T15:49:01;5.38;;;4.60;;
23163;SDS011;31429;42.674;23.350;2023-08-06T15:52:51;7.70;;;5.32;;
23163;SDS011;31429;42.674;23.350;2023-08-06T15:53:52;5.30;;;4.65;;
23163;SDS011;31429;42.674;23.350;2023-08-06T15:54:52;5.95;;;5.35;;
23163;SDS011;31429;42.674;23.350;2023-08-06T15:55:53;5.55;;;5.13;;
23163;SDS011;31429;42.674;23.350;2023-08-06T15:56:54;8.15;;;5.60;;
23163;SDS011;31429;42.674;23.350;2023-08-06T15:57:55;8.77;;;5.75;;
23163;SDS011;31429;42.674;23.350;2023-08-06T15:58:55;5.30;;;4.80;;
23163;SDS011;31429;42.674;23.350;2023-08-06T15:59:56;5.05;;;4.57;;
23163;SDS011;31429;42.674;23.350;2023-08-06T16:00:57;4.72;;;3.95;;
23163;SDS011;31429;42.674;23.350;2023-08-06T16:01:58;4.47;;;4.13;;
23163;SDS011;31429;42.674;23.350;2023-08-06T16:03:04;7.35;;;3.80;;
23163;SDS011;31429;42.674;23.350;2023-08-06T16:04:05;4.57;;;3.72;;
23163;SDS011;31429;42.674;23.350;2023-08-06T16:09:23;4.93;;;4.45;;
23163;SDS011;31429;42.674;23.350;2023-08-06T16:12:41;7.50;;;5.18;;
23163;SDS011;31429;42.674;23.350;2023-08-06T16:14:03;6.10;;;5.50;;